sensor_id;sensor_type;location;lat;lon;timestamp;temperature;humidity
74520;DHT22;63002;48.134;-1.948;2023-08-24T05:02:36;26.10;58.60
74520;DHT22;63002;48.134;-1.948;2023-08-24T05:05:02;26.20;58.30
74520;DHT22;63002;48.134;-1.948;2023-08-24T05:07:28;26.30;58.30
74520;DHT22;63002;48.134;-1.948;2023-08-24T05:09:54;26.30;58.20
74520;DHT22;63002;48.134;-1.948;2023-08-24T05:12:20;26.30;58.10
74520;DHT22;63002;48.134;-1.948;2023-08-24T05:14:45;26.30;58.10
74520;DHT22;63002;48.134;-1.948;2023-08-24T05:17:11;26.40;58.10
74520;DHT22;63002;48.134;-1.948;2023-08-24T05:19:37;26.40;58.10
74520;DHT22;63002;48.134;-1.948;2023-08-24T05:22:03;26.40;58.00
74520;DHT22;63002;48.134;-1.948;2023-08-24T05:24:28;26.40;58.10
74520;DHT22;63002;48.134;-1.948;2023-08-24T05:26:54;26.40;58.00
74520;DHT22;63002;48.134;-1.948;2023-08-24T05:29:20;26.40;58.10
74520;DHT22;63002;48.134;-1.948;2023-08-24T05:31:45;26.40;58.00
74520;DHT22;63002;48.134;-1.948;2023-08-24T05:34:11;26.40;58.00
74520;DHT22;63002;48.134;-1.948;2023-08-24T05:36:37;26.40;58.00
74520;DHT22;63002;48.134;-1.948;2023-08-24T05:39:02;26.40;58.00
74520;DHT22;63002;48.134;-1.948;2023-08-24T05:41:28;26.40;58.00
74520;DHT22;63002;48.134;-1.948;2023-08-24T05:43:54;26.50;57.90
74520;DHT22;63002;48.134;-1.948;2023-08-24T05:46:19;26.50;57.90
74520;DHT22;63002;48.134;-1.948;2023-08-24T05:48:45;26.50;58.00
74520;DHT22;63002;48.134;-1.948;2023-08-24T05:51:11;26.50;57.80
74520;DHT22;63002;48.134;-1.948;2023-08-24T05:53:38;26.50;57.80
74520;DHT22;63002;48.134;-1.948;2023-08-24T05:56:06;26.50;57.70
74520;DHT22;63002;48.134;-1.948;2023-08-24T05:58:33;26.50;57.80
74520;DHT22;63002;48.134;-1.948;2023-08-24T06:00:59;26.50;57.80
74520;DHT22;63002;48.134;-1.948;2023-08-24T06:03:25;26.50;57.80
74520;DHT22;63002;48.134;-1.948;2023-08-24T06:05:52;26.50;57.70
74520;DHT22;63002;48.134;-1.948;2023-08-24T06:08:18;26.50;57.70
74520;DHT22;63002;48.134;-1.948;2023-08-24T06:10:44;26.50;57.70
74520;DHT22;63002;48.134;-1.948;2023-08-24T06:13:12;26.50;57.70
74520;DHT22;63002;48.134;-1.948;2023-08-24T06:15:39;26.50;57.80
74520;DHT22;63002;48.134;-1.948;2023-08-24T06:18:05;26.50;57.70
74520;DHT22;63002;48.134;-1.948;2023-08-24T06:20:31;26.50;57.70
74520;DHT22;63002;48.134;-1.948;2023-08-24T06:22:57;26.50;57.70
74520;DHT22;63002;48.134;-1.948;2023-08-24T06:25:23;26.50;57.80
74520;DHT22;63002;48.134;-1.948;2023-08-24T06:27:49;26.50;57.70
74520;DHT22;63002;48.134;-1.948;2023-08-24T06:30:15;26.50;57.70
74520;DHT22;63002;48.134;-1.948;2023-08-24T06:32:42;26.50;57.70
74520;DHT22;63002;48.134;-1.948;2023-08-24T06:35:08;26.50;57.70
74520;DHT22;63002;48.134;-1.948;2023-08-24T06:37:34;26.50;57.70
74520;DHT22;63002;48.134;-1.948;2023-08-24T06:40:00;26.50;57.70
74520;DHT22;63002;48.134;-1.948;2023-08-24T06:42:26;26.50;57.70
74520;DHT22;63002;48.134;-1.948;2023-08-24T06:44:52;26.50;57.70
74520;DHT22;63002;48.134;-1.948;2023-08-24T06:47:17;26.50;57.80
74520;DHT22;63002;48.134;-1.948;2023-08-24T06:49:43;26.50;57.70
74520;DHT22;63002;48.134;-1.948;2023-08-24T06:52:09;26.50;57.70
74520;DHT22;63002;48.134;-1.948;2023-08-24T06:54:34;26.50;57.70
74520;DHT22;63002;48.134;-1.948;2023-08-24T06:57:00;26.50;57.70
74520;DHT22;63002;48.134;-1.948;2023-08-24T06:59:26;26.50;57.70
74520;DHT22;63002;48.134;-1.948;2023-08-24T07:01:51;26.60;57.60
74520;DHT22;63002;48.134;-1.948;2023-08-24T07:04:17;26.50;57.60
74520;DHT22;63002;48.134;-1.948;2023-08-24T07:06:43;26.60;57.60
74520;DHT22;63002;48.134;-1.948;2023-08-24T07:09:09;26.60;57.60
74520;DHT22;63002;48.134;-1.948;2023-08-24T07:11:35;26.50;57.60
74520;DHT22;63002;48.134;-1.948;2023-08-24T07:14:00;26.50;57.70
74520;DHT22;63002;48.134;-1.948;2023-08-24T07:16:26;26.50;57.70
74520;DHT22;63002;48.134;-1.948;2023-08-24T07:18:52;26.50;57.60
74520;DHT22;63002;48.134;-1.948;2023-08-24T07:21:17;26.50;57.70
74520;DHT22;63002;48.134;-1.948;2023-08-24T07:23:43;26.50;57.70
74520;DHT22;63002;48.134;-1.948;2023-08-24T07:26:09;26.50;57.70
74520;DHT22;63002;48.134;-1.948;2023-08-24T07:28:35;26.50;57.70
74520;DHT22;63002;48.134;-1.948;2023-08-24T07:31:09;26.40;57.80
74520;DHT22;63002;48.134;-1.948;2023-08-24T07:33:36;26.30;58.80
74520;DHT22;63002;48.134;-1.948;2023-08-24T07:36:04;26.10;59.40
74520;DHT22;63002;48.134;-1.948;2023-08-24T07:38:31;26.10;59.50
74520;DHT22;63002;48.134;-1.948;2023-08-24T07:40:57;26.00;59.70
74520;DHT22;63002;48.134;-1.948;2023-08-24T07:43:23;26.10;59.30
74520;DHT22;63002;48.134;-1.948;2023-08-24T07:45:49;26.20;58.90
74520;DHT22;63002;48.134;-1.948;2023-08-24T07:48:15;26.30;58.90
74520;DHT22;63002;48.134;-1.948;2023-08-24T07:50:41;26.30;58.70
74520;DHT22;63002;48.134;-1.948;2023-08-24T07:53:08;26.30;58.60
74520;DHT22;63002;48.134;-1.948;2023-08-24T07:55:34;26.40;58.50
74520;DHT22;63002;48.134;-1.948;2023-08-24T07:58:00;26.30;58.90
74520;DHT22;63002;48.134;-1.948;2023-08-24T08:00:25;26.30;58.90
74520;DHT22;63002;48.134;-1.948;2023-08-24T08:02:51;26.30;58.90
74520;DHT22;63002;48.134;-1.948;2023-08-24T08:05:21;26.20;59.50
74520;DHT22;63002;48.134;-1.948;2023-08-24T08:07:48;26.20;59.40
74520;DHT22;63002;48.134;-1.948;2023-08-24T08:10:14;26.30;59.50
74520;DHT22;63002;48.134;-1.948;2023-08-24T08:12:43;26.30;59.20
74520;DHT22;63002;48.134;-1.948;2023-08-24T08:15:09;26.30;59.30
74520;DHT22;63002;48.134;-1.948;2023-08-24T08:17:34;26.40;59.20
74520;DHT22;63002;48.134;-1.948;2023-08-24T08:20:00;26.40;59.20
74520;DHT22;63002;48.134;-1.948;2023-08-24T08:22:27;26.30;59.20
74520;DHT22;63002;48.134;-1.948;2023-08-24T08:24:53;26.40;59.10
74520;DHT22;63002;48.134;-1.948;2023-08-24T08:27:19;26.30;59.20
74520;DHT22;63002;48.134;-1.948;2023-08-24T08:29:46;26.40;59.10
74520;DHT22;63002;48.134;-1.948;2023-08-24T08:32:11;26.40;59.20
74520;DHT22;63002;48.134;-1.948;2023-08-24T08:34:38;26.40;59.20
74520;DHT22;63002;48.134;-1.948;2023-08-24T08:37:03;26.40;59.20
74520;DHT22;63002;48.134;-1.948;2023-08-24T08:39:30;26.40;59.00
74520;DHT22;63002;48.134;-1.948;2023-08-24T08:41:55;26.40;59.00
74520;DHT22;63002;48.134;-1.948;2023-08-24T08:44:22;26.50;58.90
74520;DHT22;63002;48.134;-1.948;2023-08-24T08:46:49;26.40;58.90
74520;DHT22;63002;48.134;-1.948;2023-08-24T08:49:16;26.40;58.90
74520;DHT22;63002;48.134;-1.948;2023-08-24T08:51:43;26.40;58.90
74520;DHT22;63002;48.134;-1.948;2023-08-24T08:54:08;26.50;58.90
74520;DHT22;63002;48.134;-1.948;2023-08-24T08:56:37;26.40;58.90
74520;DHT22;63002;48.134;-1.948;2023-08-24T08:59:04;26.40;58.90
74520;DHT22;63002;48.134;-1.948;2023-08-24T09:01:32;26.40;58.90
74520;DHT22;63002;48.134;-1.948;2023-08-24T09:03:58;26.40;59.00
74520;DHT22;63002;48.134;-1.948;2023-08-24T09:06:24;26.40;59.00
74520;DHT22;63002;48.134;-1.948;2023-08-24T09:08:50;26.40;59.00
74520;DHT22;63002;48.134;-1.948;2023-08-24T09:11:17;26.40;58.90
74520;DHT22;63002;48.134;-1.948;2023-08-24T09:13:46;26.40;58.90
74520;DHT22;63002;48.134;-1.948;2023-08-24T09:16:12;26.40;58.90
74520;DHT22;63002;48.134;-1.948;2023-08-24T09:18:46;26.40;58.90
74520;DHT22;63002;48.134;-1.948;2023-08-24T09:21:14;26.40;59.40
74520;DHT22;63002;48.134;-1.948;2023-08-24T09:23:44;26.40;59.40
74520;DHT22;63002;48.134;-1.948;2023-08-24T09:26:13;26.40;59.60
74520;DHT22;63002;48.134;-1.948;2023-08-24T09:28:42;26.40;59.60
74520;DHT22;63002;48.134;-1.948;2023-08-24T09:31:08;26.40;59.60
74520;DHT22;63002;48.134;-1.948;2023-08-24T09:33:36;26.40;59.70
74520;DHT22;63002;48.134;-1.948;2023-08-24T09:36:07;26.40;60.00
74520;DHT22;63002;48.134;-1.948;2023-08-24T09:38:36;26.40;60.00
74520;DHT22;63002;48.134;-1.948;2023-08-24T09:41:06;26.40;60.10
74520;DHT22;63002;48.134;-1.948;2023-08-24T09:43:34;26.40;60.10
74520;DHT22;63002;48.134;-1.948;2023-08-24T09:45:59;26.40;60.20
74520;DHT22;63002;48.134;-1.948;2023-08-24T09:48:25;26.40;60.10
74520;DHT22;63002;48.134;-1.948;2023-08-24T09:50:51;26.40;60.10
74520;DHT22;63002;48.134;-1.948;2023-08-24T09:53:21;26.40;59.90
74520;DHT22;63002;48.134;-1.948;2023-08-24T09:56:01;26.50;60.00
74520;DHT22;63002;48.134;-1.948;2023-08-24T09:58:27;26.40;60.20
74520;DHT22;63002;48.134;-1.948;2023-08-24T10:00:54;26.40;60.20
74520;DHT22;63002;48.134;-1.948;2023-08-24T10:03:25;26.40;60.30
74520;DHT22;63002;48.134;-1.948;2023-08-24T10:05:53;26.40;60.40
74520;DHT22;63002;48.134;-1.948;2023-08-24T10:08:46;26.40;60.50
74520;DHT22;63002;48.134;-1.948;2023-08-24T10:11:17;26.40;60.30
74520;DHT22;63002;48.134;-1.948;2023-08-24T10:14:01;26.40;60.30
74520;DHT22;63002;48.134;-1.948;2023-08-24T10:16:29;26.40;60.40
74520;DHT22;63002;48.134;-1.948;2023-08-24T10:18:55;26.50;60.10
74520;DHT22;63002;48.134;-1.948;2023-08-24T10:21:23;26.50;60.30
74520;DHT22;63002;48.134;-1.948;2023-08-24T10:23:52;26.50;60.30
74520;DHT22;63002;48.134;-1.948;2023-08-24T10:26:32;26.50;60.50
74520;DHT22;63002;48.134;-1.948;2023-08-24T10:28:58;26.50;60.50
74520;DHT22;63002;48.134;-1.948;2023-08-24T10:31:25;26.50;60.50
74520;DHT22;63002;48.134;-1.948;2023-08-24T10:33:52;26.50;60.30
74520;DHT22;63002;48.134;-1.948;2023-08-24T10:36:21;26.60;60.30
74520;DHT22;63002;48.134;-1.948;2023-08-24T10:38:48;26.60;60.30
74520;DHT22;63002;48.134;-1.948;2023-08-24T10:41:14;26.50;60.30
74520;DHT22;63002;48.134;-1.948;2023-08-24T10:43:47;26.50;60.40
74520;DHT22;63002;48.134;-1.948;2023-08-24T10:46:14;26.50;60.60
74520;DHT22;63002;48.134;-1.948;2023-08-24T10:53:53;26.50;59.90
74520;DHT22;63002;48.134;-1.948;2023-08-24T10:56:19;26.60;59.70
74520;DHT22;63002;48.134;-1.948;2023-08-24T10:58:46;26.60;59.70
74520;DHT22;63002;48.134;-1.948;2023-08-24T11:01:18;26.60;59.70
74520;DHT22;63002;48.134;-1.948;2023-08-24T11:03:54;26.60;59.70
74520;DHT22;63002;48.134;-1.948;2023-08-24T11:06:21;26.60;59.60
74520;DHT22;63002;48.134;-1.948;2023-08-24T11:08:48;26.70;59.40
74520;DHT22;63002;48.134;-1.948;2023-08-24T11:11:35;26.70;59.20
74520;DHT22;63002;48.134;-1.948;2023-08-24T11:14:19;26.70;59.20
74520;DHT22;63002;48.134;-1.948;2023-08-24T11:16:48;26.70;59.10
74520;DHT22;63002;48.134;-1.948;2023-08-24T11:19:15;26.70;59.20
74520;DHT22;63002;48.134;-1.948;2023-08-24T11:21:47;26.60;59.70
74520;DHT22;63002;48.134;-1.948;2023-08-24T11:24:14;26.60;59.70
74520;DHT22;63002;48.134;-1.948;2023-08-24T11:26:48;26.70;59.90
74520;DHT22;63002;48.134;-1.948;2023-08-24T11:29:14;26.70;60.10
74520;DHT22;63002;48.134;-1.948;2023-08-24T11:31:44;26.70;60.20
74520;DHT22;63002;48.134;-1.948;2023-08-24T11:34:10;26.70;60.40
74520;DHT22;63002;48.134;-1.948;2023-08-24T11:36:49;26.70;60.30
74520;DHT22;63002;48.134;-1.948;2023-08-24T11:39:20;26.80;60.40
74520;DHT22;63002;48.134;-1.948;2023-08-24T11:42:03;26.80;60.30
74520;DHT22;63002;48.134;-1.948;2023-08-24T11:44:30;26.80;60.50
74520;DHT22;63002;48.134;-1.948;2023-08-24T11:47:10;26.90;60.70
74520;DHT22;63002;48.134;-1.948;2023-08-24T11:49:35;26.80;60.80
74520;DHT22;63002;48.134;-1.948;2023-08-24T11:52:01;26.90;61.00
74520;DHT22;63002;48.134;-1.948;2023-08-24T11:54:27;26.90;60.90
74520;DHT22;63002;48.134;-1.948;2023-08-24T11:56:53;26.90;60.80
74520;DHT22;63002;48.134;-1.948;2023-08-24T11:59:19;27.00;60.80
74520;DHT22;63002;48.134;-1.948;2023-08-24T12:01:45;27.00;60.70
74520;DHT22;63002;48.134;-1.948;2023-08-24T12:04:12;27.00;60.80
74520;DHT22;63002;48.134;-1.948;2023-08-24T12:06:41;27.10;60.60
74520;DHT22;63002;48.134;-1.948;2023-08-24T12:09:11;27.00;60.80
74520;DHT22;63002;48.134;-1.948;2023-08-24T12:11:39;27.00;60.90
74520;DHT22;63002;48.134;-1.948;2023-08-24T12:14:07;27.00;60.90
74520;DHT22;63002;48.134;-1.948;2023-08-24T12:16:35;27.00;60.70
74520;DHT22;63002;48.134;-1.948;2023-08-24T12:19:01;27.00;60.60
74520;DHT22;63002;48.134;-1.948;2023-08-24T12:21:30;27.10;60.40
74520;DHT22;63002;48.134;-1.948;2023-08-24T12:24:01;27.10;60.40
74520;DHT22;63002;48.134;-1.948;2023-08-24T12:26:29;27.10;60.20
74520;DHT22;63002;48.134;-1.948;2023-08-24T12:29:04;27.20;59.80
74520;DHT22;63002;48.134;-1.948;2023-08-24T12:31:31;27.20;59.70
74520;DHT22;63002;48.134;-1.948;2023-08-24T12:34:01;27.20;59.50
74520;DHT22;63002;48.134;-1.948;2023-08-24T12:36:27;27.20;59.50
74520;DHT22;63002;48.134;-1.948;2023-08-24T12:38:53;27.20;59.30
74520;DHT22;63002;48.134;-1.948;2023-08-24T12:41:19;27.20;59.30
74520;DHT22;63002;48.134;-1.948;2023-08-24T12:43:47;27.20;59.30
74520;DHT22;63002;48.134;-1.948;2023-08-24T12:46:14;27.20;59.20
74520;DHT22;63002;48.134;-1.948;2023-08-24T12:48:40;27.20;59.10
74520;DHT22;63002;48.134;-1.948;2023-08-24T12:51:06;27.20;59.10
74520;DHT22;63002;48.134;-1.948;2023-08-24T12:53:31;27.20;59.20
74520;DHT22;63002;48.134;-1.948;2023-08-24T12:55:57;27.20;59.10
74520;DHT22;63002;48.134;-1.948;2023-08-24T12:58:23;27.20;59.10
74520;DHT22;63002;48.134;-1.948;2023-08-24T13:00:48;27.20;59.00
74520;DHT22;63002;48.134;-1.948;2023-08-24T13:03:14;27.10;59.10
74520;DHT22;63002;48.134;-1.948;2023-08-24T13:05:40;27.10;59.00
74520;DHT22;63002;48.134;-1.948;2023-08-24T13:08:05;27.20;58.90
74520;DHT22;63002;48.134;-1.948;2023-08-24T13:10:31;27.20;59.00
74520;DHT22;63002;48.134;-1.948;2023-08-24T13:12:57;27.10;58.90
74520;DHT22;63002;48.134;-1.948;2023-08-24T13:15:23;27.20;58.80
74520;DHT22;63002;48.134;-1.948;2023-08-24T13:17:48;27.20;58.80
74520;DHT22;63002;48.134;-1.948;2023-08-24T13:20:15;27.10;58.80
74520;DHT22;63002;48.134;-1.948;2023-08-24T13:22:43;27.10;58.80
74520;DHT22;63002;48.134;-1.948;2023-08-24T13:25:09;27.20;58.70
74520;DHT22;63002;48.134;-1.948;2023-08-24T13:27:35;27.20;58.70
74520;DHT22;63002;48.134;-1.948;2023-08-24T13:30:01;27.20;58.70
74520;DHT22;63002;48.134;-1.948;2023-08-24T13:32:27;27.20;58.70
74520;DHT22;63002;48.134;-1.948;2023-08-24T13:34:53;27.20;58.70
74520;DHT22;63002;48.134;-1.948;2023-08-24T13:37:19;27.20;58.70
74520;DHT22;63002;48.134;-1.948;2023-08-24T13:39:45;27.20;58.60
74520;DHT22;63002;48.134;-1.948;2023-08-24T13:42:10;27.20;58.60
74520;DHT22;63002;48.134;-1.948;2023-08-24T13:44:36;27.20;58.60
74520;DHT22;63002;48.134;-1.948;2023-08-24T13:47:02;27.20;58.60
74520;DHT22;63002;48.134;-1.948;2023-08-24T13:49:27;27.20;58.50
74520;DHT22;63002;48.134;-1.948;2023-08-24T13:51:53;27.20;58.50
74520;DHT22;63002;48.134;-1.948;2023-08-24T13:54:19;27.20;58.40
74520;DHT22;63002;48.134;-1.948;2023-08-24T13:56:47;27.30;58.40
74520;DHT22;63002;48.134;-1.948;2023-08-24T13:59:14;27.20;58.40
74520;DHT22;63002;48.134;-1.948;2023-08-24T14:01:40;27.20;58.40
74520;DHT22;63002;48.134;-1.948;2023-08-24T14:04:07;27.30;58.40
74520;DHT22;63002;48.134;-1.948;2023-08-24T14:06:33;27.30;58.40
74520;DHT22;63002;48.134;-1.948;2023-08-24T14:09:00;27.30;58.40
74520;DHT22;63002;48.134;-1.948;2023-08-24T14:11:27;27.20;58.40
74520;DHT22;63002;48.134;-1.948;2023-08-24T14:13:53;27.30;58.40
74520;DHT22;63002;48.134;-1.948;2023-08-24T14:16:21;27.30;58.50
74520;DHT22;63002;48.134;-1.948;2023-08-24T14:18:55;27.30;58.40
74520;DHT22;63002;48.134;-1.948;2023-08-24T14:21:23;27.10;58.80
74520;DHT22;63002;48.134;-1.948;2023-08-24T14:23:51;27.00;59.10
74520;DHT22;63002;48.134;-1.948;2023-08-24T14:26:17;27.10;59.10
74520;DHT22;63002;48.134;-1.948;2023-08-24T14:28:54;27.10;59.00
74520;DHT22;63002;48.134;-1.948;2023-08-24T14:31:28;27.20;58.90
74520;DHT22;63002;48.134;-1.948;2023-08-24T14:33:55;27.20;58.80
74520;DHT22;63002;48.134;-1.948;2023-08-24T14:36:21;27.20;58.80
74520;DHT22;63002;48.134;-1.948;2023-08-24T14:38:48;27.20;58.80
74520;DHT22;63002;48.134;-1.948;2023-08-24T14:41:15;27.20;58.80
74520;DHT22;63002;48.134;-1.948;2023-08-24T14:43:42;27.20;58.90
74520;DHT22;63002;48.134;-1.948;2023-08-24T14:46:07;27.20;58.90
74520;DHT22;63002;48.134;-1.948;2023-08-24T14:48:33;27.20;59.00
74520;DHT22;63002;48.134;-1.948;2023-08-24T14:51:00;27.20;58.90
74520;DHT22;63002;48.134;-1.948;2023-08-24T14:53:26;27.20;59.00
74520;DHT22;63002;48.134;-1.948;2023-08-24T14:55:56;27.20;59.10
74520;DHT22;63002;48.134;-1.948;2023-08-24T14:58:24;27.20;59.20
74520;DHT22;63002;48.134;-1.948;2023-08-24T15:00:52;27.20;59.30
74520;DHT22;63002;48.134;-1.948;2023-08-24T15:03:18;27.20;59.20
74520;DHT22;63002;48.134;-1.948;2023-08-24T15:06:04;27.30;59.10
74520;DHT22;63002;48.134;-1.948;2023-08-24T15:08:32;27.30;59.10
74520;DHT22;63002;48.134;-1.948;2023-08-24T15:10:59;27.30;59.00
74520;DHT22;63002;48.134;-1.948;2023-08-24T15:13:26;27.30;58.90
74520;DHT22;63002;48.134;-1.948;2023-08-24T15:15:54;27.30;58.90
74520;DHT22;63002;48.134;-1.948;2023-08-24T15:18:20;27.30;58.90
74520;DHT22;63002;48.134;-1.948;2023-08-24T15:20:46;27.30;58.90
74520;DHT22;63002;48.134;-1.948;2023-08-24T15:23:26;27.30;58.90
74520;DHT22;63002;48.134;-1.948;2023-08-24T15:25:56;27.30;59.10
74520;DHT22;63002;48.134;-1.948;2023-08-24T15:28:23;27.30;59.30
74520;DHT22;63002;48.134;-1.948;2023-08-24T15:30:49;27.20;59.40
74520;DHT22;63002;48.134;-1.948;2023-08-24T15:33:16;27.20;59.50
74520;DHT22;63002;48.134;-1.948;2023-08-24T15:35:42;27.40;59.20
74520;DHT22;63002;48.134;-1.948;2023-08-24T15:38:09;27.40;59.10
74520;DHT22;63002;48.134;-1.948;2023-08-24T15:40:36;27.40;59.00
74520;DHT22;63002;48.134;-1.948;2023-08-24T15:43:02;27.40;59.00
74520;DHT22;63002;48.134;-1.948;2023-08-24T15:45:29;27.40;59.10
74520;DHT22;63002;48.134;-1.948;2023-08-24T15:47:56;27.40;59.10
74520;DHT22;63002;48.134;-1.948;2023-08-24T15:50:22;27.40;59.10
74520;DHT22;63002;48.134;-1.948;2023-08-24T15:52:48;27.40;59.20
74520;DHT22;63002;48.134;-1.948;2023-08-24T15:55:14;27.30;59.40
74520;DHT22;63002;48.134;-1.948;2023-08-24T15:57:40;27.30;59.60
74520;DHT22;63002;48.134;-1.948;2023-08-24T16:00:06;27.30;59.70
74520;DHT22;63002;48.134;-1.948;2023-08-24T16:02:38;27.30;59.50
74520;DHT22;63002;48.134;-1.948;2023-08-24T16:05:04;27.40;59.30
74520;DHT22;63002;48.134;-1.948;2023-08-24T16:07:31;27.40;59.30
74520;DHT22;63002;48.134;-1.948;2023-08-24T16:09:57;27.40;59.30
74520;DHT22;63002;48.134;-1.948;2023-08-24T16:12:24;27.40;59.20
74520;DHT22;63002;48.134;-1.948;2023-08-24T16:14:50;27.50;59.20
74520;DHT22;63002;48.134;-1.948;2023-08-24T16:17:16;27.50;59.10
74520;DHT22;63002;48.134;-1.948;2023-08-24T16:19:44;27.50;59.20
74520;DHT22;63002;48.134;-1.948;2023-08-24T16:22:10;27.40;59.60
74520;DHT22;63002;48.134;-1.948;2023-08-24T16:24:36;27.30;59.70
74520;DHT22;63002;48.134;-1.948;2023-08-24T16:27:02;27.30;59.80
74520;DHT22;63002;48.134;-1.948;2023-08-24T16:29:27;27.40;59.60
74520;DHT22;63002;48.134;-1.948;2023-08-24T16:31:54;27.40;59.50
74520;DHT22;63002;48.134;-1.948;2023-08-24T16:34:19;27.50;59.40
74520;DHT22;63002;48.134;-1.948;2023-08-24T16:36:47;27.50;59.30
74520;DHT22;63002;48.134;-1.948;2023-08-24T16:39:13;27.50;59.40
74520;DHT22;63002;48.134;-1.948;2023-08-24T16:41:39;27.50;59.40
74520;DHT22;63002;48.134;-1.948;2023-08-24T16:44:05;27.50;59.30
74520;DHT22;63002;48.134;-1.948;2023-08-24T16:46:31;27.50;59.80
74520;DHT22;63002;48.134;-1.948;2023-08-24T16:48:58;27.50;59.90
74520;DHT22;63002;48.134;-1.948;2023-08-24T16:51:24;27.50;60.00
74520;DHT22;63002;48.134;-1.948;2023-08-24T16:53:53;27.60;60.20
74520;DHT22;63002;48.134;-1.948;2023-08-24T16:56:21;27.60;60.60
74520;DHT22;63002;48.134;-1.948;2023-08-24T16:58:47;27.60;60.10
74520;DHT22;63002;48.134;-1.948;2023-08-24T17:01:13;27.70;59.70
74520;DHT22;63002;48.134;-1.948;2023-08-24T17:03:40;27.70;59.60
74520;DHT22;63002;48.134;-1.948;2023-08-24T17:06:06;27.70;59.60
74520;DHT22;63002;48.134;-1.948;2023-08-24T17:08:34;27.70;60.20
74520;DHT22;63002;48.134;-1.948;2023-08-24T17:11:00;27.70;60.30
74520;DHT22;63002;48.134;-1.948;2023-08-24T17:13:26;27.80;60.20
74520;DHT22;63002;48.134;-1.948;2023-08-24T17:15:51;27.80;60.00
74520;DHT22;63002;48.134;-1.948;2023-08-24T17:18:18;27.60;59.50
74520;DHT22;63002;48.134;-1.948;2023-08-24T17:20:44;27.50;59.60
74520;DHT22;63002;48.134;-1.948;2023-08-24T17:23:10;27.50;59.30
74520;DHT22;63002;48.134;-1.948;2023-08-24T17:25:40;27.50;59.40
74520;DHT22;63002;48.134;-1.948;2023-08-24T17:28:07;27.50;59.50
74520;DHT22;63002;48.134;-1.948;2023-08-24T17:30:32;27.60;59.60
74520;DHT22;63002;48.134;-1.948;2023-08-24T17:32:58;27.60;59.50
74520;DHT22;63002;48.134;-1.948;2023-08-24T17:35:25;27.70;59.40
74520;DHT22;63002;48.134;-1.948;2023-08-24T17:37:53;27.70;58.50
74520;DHT22;63002;48.134;-1.948;2023-08-24T17:40:19;27.50;58.20
74520;DHT22;63002;48.134;-1.948;2023-08-24T17:42:45;27.30;58.00
74520;DHT22;63002;48.134;-1.948;2023-08-24T17:45:11;27.10;58.00
74520;DHT22;63002;48.134;-1.948;2023-08-24T17:47:37;26.80;58.40
74520;DHT22;63002;48.134;-1.948;2023-08-24T17:50:03;26.90;58.40
74520;DHT22;63002;48.134;-1.948;2023-08-24T17:52:34;26.80;58.60
74520;DHT22;63002;48.134;-1.948;2023-08-24T17:55:00;26.70;58.70
74520;DHT22;63002;48.134;-1.948;2023-08-24T17:57:26;26.60;58.70
74520;DHT22;63002;48.134;-1.948;2023-08-24T17:59:52;26.50;58.80
74520;DHT22;63002;48.134;-1.948;2023-08-24T18:02:17;26.50;59.00
74520;DHT22;63002;48.134;-1.948;2023-08-24T18:04:43;26.60;58.70
74520;DHT22;63002;48.134;-1.948;2023-08-24T18:07:11;26.60;58.70
74520;DHT22;63002;48.134;-1.948;2023-08-24T18:09:37;26.60;58.40
74520;DHT22;63002;48.134;-1.948;2023-08-24T18:12:03;26.60;58.10
74520;DHT22;63002;48.134;-1.948;2023-08-24T18:14:30;26.60;57.90
74520;DHT22;63002;48.134;-1.948;2023-08-24T18:16:56;26.50;57.90
74520;DHT22;63002;48.134;-1.948;2023-08-24T18:19:22;26.50;57.40
74520;DHT22;63002;48.134;-1.948;2023-08-24T18:21:47;26.40;57.40
74520;DHT22;63002;48.134;-1.948;2023-08-24T18:24:13;26.30;57.50
74520;DHT22;63002;48.134;-1.948;2023-08-24T18:26:39;26.30;57.50
74520;DHT22;63002;48.134;-1.948;2023-08-24T18:29:04;26.30;57.40
74520;DHT22;63002;48.134;-1.948;2023-08-24T18:31:30;26.20;57.30
74520;DHT22;63002;48.134;-1.948;2023-08-24T18:33:56;26.20;57.30
74520;DHT22;63002;48.134;-1.948;2023-08-24T18:36:21;26.10;57.10
74520;DHT22;63002;48.134;-1.948;2023-08-24T18:38:47;26.10;57.10
74520;DHT22;63002;48.134;-1.948;2023-08-24T18:41:13;26.20;57.00
74520;DHT22;63002;48.134;-1.948;2023-08-24T18:43:38;26.20;57.20
74520;DHT22;63002;48.134;-1.948;2023-08-24T18:46:04;26.30;57.00
74520;DHT22;63002;48.134;-1.948;2023-08-24T18:48:30;26.20;56.80
74520;DHT22;63002;48.134;-1.948;2023-08-24T18:50:57;26.10;56.70
74520;DHT22;63002;48.134;-1.948;2023-08-24T18:53:23;25.90;56.80
74520;DHT22;63002;48.134;-1.948;2023-08-24T18:55:58;25.80;56.90
74520;DHT22;63002;48.134;-1.948;2023-08-24T18:58:25;25.80;56.80
74520;DHT22;63002;48.134;-1.948;2023-08-24T19:01:01;25.70;56.70
74520;DHT22;63002;48.134;-1.948;2023-08-24T19:05:53;25.60;56.30
74520;DHT22;63002;48.134;-1.948;2023-08-24T19:08:19;25.50;56.00
74520;DHT22;63002;48.134;-1.948;2023-08-24T19:10:45;25.50;56.20
74520;DHT22;63002;48.134;-1.948;2023-08-24T19:13:10;25.50;56.40
74520;DHT22;63002;48.134;-1.948;2023-08-24T19:15:36;25.70;56.20
74520;DHT22;63002;48.134;-1.948;2023-08-24T19:18:02;25.70;55.60
74520;DHT22;63002;48.134;-1.948;2023-08-24T19:20:28;25.70;55.30
74520;DHT22;63002;48.134;-1.948;2023-08-24T19:22:54;25.60;55.30
74520;DHT22;63002;48.134;-1.948;2023-08-24T19:25:20;25.60;55.30
74520;DHT22;63002;48.134;-1.948;2023-08-24T19:27:46;25.60;55.00
74520;DHT22;63002;48.134;-1.948;2023-08-24T19:30:11;25.60;54.80
74520;DHT22;63002;48.134;-1.948;2023-08-24T19:32:37;25.60;55.00
74520;DHT22;63002;48.134;-1.948;2023-08-24T19:35:03;25.70;55.00
74520;DHT22;63002;48.134;-1.948;2023-08-24T19:37:29;25.80;54.90
74520;DHT22;63002;48.134;-1.948;2023-08-24T19:39:55;25.90;55.10
74520;DHT22;63002;48.134;-1.948;2023-08-24T19:42:21;26.00;55.20
74520;DHT22;63002;48.134;-1.948;2023-08-24T19:44:46;26.00;55.40
74520;DHT22;63002;48.134;-1.948;2023-08-24T19:47:12;26.10;55.50
74520;DHT22;63002;48.134;-1.948;2023-08-24T19:49:39;26.10;55.60
74520;DHT22;63002;48.134;-1.948;2023-08-24T19:52:05;26.20;55.70
74520;DHT22;63002;48.134;-1.948;2023-08-24T19:54:30;26.20;55.70
74520;DHT22;63002;48.134;-1.948;2023-08-24T19:56:56;26.30;55.80
74520;DHT22;63002;48.134;-1.948;2023-08-24T19:59:22;26.20;55.60
74520;DHT22;63002;48.134;-1.948;2023-08-24T20:01:47;26.20;54.90
74520;DHT22;63002;48.134;-1.948;2023-08-24T20:04:13;26.10;55.00
74520;DHT22;63002;48.134;-1.948;2023-08-24T20:06:39;26.10;55.20
74520;DHT22;63002;48.134;-1.948;2023-08-24T20:09:05;26.10;55.10
74520;DHT22;63002;48.134;-1.948;2023-08-24T20:11:31;26.10;54.90
74520;DHT22;63002;48.134;-1.948;2023-08-24T20:13:57;26.10;55.20
74520;DHT22;63002;48.134;-1.948;2023-08-24T20:16:26;26.10;55.20
74520;DHT22;63002;48.134;-1.948;2023-08-24T20:18:52;26.10;55.60
74520;DHT22;63002;48.134;-1.948;2023-08-24T20:21:18;26.20;55.30
74520;DHT22;63002;48.134;-1.948;2023-08-24T20:23:45;26.20;55.00